createdAt,value
2022-10-05T02:02:56.145Z,7.90
2022-10-05T07:42:24.423Z,7.77
2022-10-05T07:58:21.184Z,8.30
2022-10-05T08:07:38.408Z,10.03
2022-10-05T08:12:31.687Z,13.43
2022-10-05T08:16:42.824Z,12.13
2022-10-05T08:26:25.624Z,10.30
2022-10-05T08:31:11.115Z,9.93
2022-10-05T08:35:34.526Z,12.77
2022-10-05T08:39:54.005Z,9.27
2022-10-05T08:44:55.360Z,13.13
2022-10-05T08:49:34.886Z,12.23
2022-10-05T08:54:20.784Z,13.47
2022-10-05T08:59:02.046Z,13.97
2022-10-05T09:03:33.544Z,12.07
2022-10-05T09:08:28.426Z,16.27
2022-10-05T09:13:09.723Z,16.03
2022-10-05T09:17:39.331Z,13.87
2022-10-05T09:21:59.874Z,10.30
2022-10-05T09:26:33.464Z,13.90
2022-10-05T09:30:55.097Z,14.87
2022-10-05T09:35:29.128Z,13.53
2022-10-05T09:39:56.771Z,12.37
2022-10-05T09:44:56.545Z,17.13
2022-10-05T09:49:44.084Z,12.63
2022-10-05T09:54:22.185Z,9.50
2022-10-05T09:58:54.424Z,16.60
2022-10-05T10:03:57.728Z,12.70
2022-10-05T10:08:26.525Z,18.33
2022-10-05T10:12:44.146Z,14.80
2022-10-05T10:17:15.465Z,12.47
2022-10-05T10:22:02.765Z,10.43
2022-10-05T10:26:46.309Z,15.37
2022-10-05T10:31:13.341Z,16.50
2022-10-05T10:35:34.688Z,15.43
2022-10-05T10:40:03.846Z,16.40
2022-10-05T10:44:49.505Z,15.00
2022-10-05T10:49:02.465Z,18.70
2022-10-05T10:53:30.545Z,14.90
2022-10-05T10:57:59.146Z,15.67
2022-10-05T11:02:40.671Z,23.80
2022-10-05T11:07:22.217Z,17.37
2022-10-05T11:12:05.743Z,20.03
2022-10-05T11:16:39.950Z,16.87
2022-10-05T11:21:14.685Z,20.93
2022-10-05T11:25:48.664Z,17.27
2022-10-05T11:30:21.525Z,24.47
2022-10-05T11:35:01.026Z,23.90
2022-10-05T11:39:38.410Z,16.63
2022-10-05T11:44:06.976Z,26.13
2022-10-05T11:48:57.845Z,22.50
2022-10-05T11:53:13.765Z,25.27
2022-10-05T11:57:29.089Z,24.67
2022-10-05T12:01:45.906Z,25.33
2022-10-05T12:06:05.864Z,33.83
2022-10-05T12:10:32.365Z,31.20
2022-10-05T12:14:51.685Z,28.37
2022-10-05T12:19:08.588Z,29.33
2022-10-05T12:23:22.509Z,26.03
2022-10-05T12:27:36.643Z,31.10
2022-10-05T12:31:56.305Z,22.10
2022-10-05T12:36:13.152Z,25.57
2022-10-05T12:40:41.264Z,11.13
2022-10-05T12:45:05.468Z,6.17
2022-10-05T12:49:49.924Z,9.77
2022-10-05T12:54:06.604Z,2.03
2022-10-05T12:58:26.829Z,1.40
2022-10-05T13:02:42.605Z,2.63
2022-10-05T13:07:14.144Z,3.33
2022-10-05T13:11:35.545Z,4.80
2022-10-05T13:15:52.470Z,4.27
2022-10-05T13:20:10.285Z,2.30
2022-10-05T13:24:25.164Z,1.80
2022-10-05T13:28:43.704Z,1.67
2022-10-05T13:32:59.367Z,3.10
2022-10-05T13:37:14.250Z,4.07
2022-10-05T13:41:34.745Z,2.23
2022-10-05T13:45:55.665Z,1.13
2022-10-05T13:50:15.826Z,2.20
2022-10-05T13:54:33.384Z,2.83
2022-10-05T13:58:47.725Z,2.20
2022-10-05T14:03:02.326Z,1.57
2022-10-05T14:07:26.865Z,2.90
2022-10-05T14:11:40.465Z,4.77
2022-10-05T14:16:09.635Z,2.07
2022-10-05T14:20:27.563Z,1.20
2022-10-05T14:29:24.065Z,3.03
2022-10-05T14:33:36.986Z,1.80
2022-10-05T14:37:52.544Z,3.10
2022-10-05T15:02:28.744Z,3.10
2022-10-05T15:07:15.424Z,5.13
2022-10-05T15:11:37.706Z,4.10
2022-10-05T15:16:05.936Z,6.33
2022-10-05T15:35:26.576Z,6.10
2022-10-05T15:39:44.984Z,7.63
2022-10-05T15:44:11.366Z,6.37
2022-10-05T15:48:23.538Z,6.47
2022-10-05T15:52:42.504Z,5.30
2022-10-05T15:56:59.467Z,5.50
2022-10-05T16:01:14.308Z,5.00
2022-10-05T16:05:54.525Z,9.57
2022-10-05T16:10:12.244Z,4.27
2022-10-05T17:01:33.186Z,5.67
2022-10-05T17:06:29.345Z,8.47
2022-10-05T17:10:51.723Z,7.43
2022-10-05T17:15:16.025Z,8.27
2022-10-05T17:19:49.006Z,9.27
2022-10-05T17:24:03.383Z,10.23
2022-10-05T17:28:28.387Z,7.80
2022-10-05T17:32:41.705Z,10.97
2022-10-05T17:36:58.085Z,8.70
2022-10-05T17:41:22.852Z,12.17
2022-10-05T17:46:01.030Z,9.67
2022-10-05T17:50:31.744Z,13.90
2022-10-05T17:55:21.806Z,7.77
2022-10-05T17:59:47.642Z,12.27
2022-10-05T18:04:19.605Z,13.20
2022-10-05T18:08:38.052Z,10.03
2022-10-05T18:13:11.202Z,11.27
2022-10-05T18:17:45.726Z,11.23
2022-10-05T18:22:15.825Z,8.90
2022-10-05T18:26:38.484Z,12.97
2022-10-05T18:31:10.714Z,10.73
2022-10-05T18:35:25.485Z,12.93
2022-10-05T18:40:01.562Z,12.87
2022-10-05T18:44:27.723Z,8.67
2022-10-05T18:48:46.308Z,12.60
2022-10-05T18:53:12.590Z,9.93
2022-10-05T18:57:48.582Z,13.40
2022-10-05T19:02:07.925Z,11.87
2022-10-05T19:06:26.243Z,12.90
2022-10-05T19:10:44.263Z,10.40
2022-10-05T19:15:01.745Z,13.23
2022-10-05T19:19:33.681Z,14.57
2022-10-05T19:23:58.823Z,14.30
2022-10-05T19:28:20.829Z,10.83
2022-10-05T19:32:40.982Z,10.67
2022-10-05T19:37:01.303Z,10.20
2022-10-05T19:41:17.991Z,13.33
2022-10-05T19:45:29.023Z,12.17
2022-10-05T19:49:58.606Z,14.23
2022-10-05T19:54:16.342Z,13.30
2022-10-05T19:58:28.489Z,9.33
2022-10-05T20:02:41.911Z,12.87
2022-10-05T20:06:51.465Z,13.50
2022-10-05T20:11:12.844Z,10.00
2022-10-05T20:15:44.009Z,12.53
2022-10-05T20:20:10.224Z,12.00
2022-10-05T20:24:21.604Z,18.20
2022-10-05T20:28:34.822Z,7.40
2022-10-05T20:32:46.184Z,9.43
2022-10-05T20:36:55.281Z,10.37
2022-10-05T20:41:04.424Z,12.23
2022-10-05T20:45:13.902Z,16.70
2022-10-05T20:49:26.064Z,12.63
2022-10-05T20:53:35.223Z,13.73
2022-10-05T20:57:45.990Z,12.17
2022-10-05T21:01:55.243Z,12.67
2022-10-05T21:06:06.044Z,17.70
2022-10-05T21:10:18.784Z,9.67
2022-10-05T21:14:33.303Z,8.63
2022-10-05T21:18:42.786Z,10.30
2022-10-05T21:22:53.243Z,6.57
2022-10-05T21:27:02.382Z,8.37
2022-10-05T21:31:12.112Z,7.53
2022-10-05T21:35:21.228Z,7.53
2022-10-05T21:39:31.863Z,8.37
2022-10-05T21:43:41.044Z,8.03
2022-10-05T21:47:50.396Z,7.50
2022-10-05T21:52:02.025Z,5.67
2022-10-05T21:56:16.502Z,9.17
2022-10-05T22:00:25.576Z,9.43
2022-10-05T22:04:34.903Z,11.60
2022-10-05T22:08:44.026Z,7.67
2022-10-05T22:12:55.622Z,8.47
2022-10-05T22:17:04.605Z,7.63
2022-10-05T22:21:15.144Z,13.53
2022-10-05T22:25:27.364Z,5.10
2022-10-05T22:29:39.568Z,10.20
2022-10-05T22:33:49.605Z,7.30
2022-10-05T22:37:58.625Z,9.87
2022-10-05T22:42:08.466Z,8.40
2022-10-05T22:46:20.321Z,7.77
2022-10-05T22:50:29.423Z,7.23
2022-10-05T22:54:38.275Z,7.00
2022-10-05T22:58:47.663Z,7.87
2022-10-05T23:02:58.284Z,9.20
2022-10-05T23:07:07.726Z,5.07
2022-10-05T23:11:18.825Z,6.53
2022-10-05T23:15:28.146Z,12.40
2022-10-05T23:19:38.724Z,9.47
2022-10-05T23:23:51.211Z,3.90
2022-10-05T23:28:00.288Z,4.70
2022-10-05T23:32:09.444Z,3.77
2022-10-05T23:36:21.986Z,8.57
2022-10-05T23:40:31.224Z,5.60
2022-10-05T23:44:40.122Z,8.87
2022-10-05T23:48:50.624Z,8.43
2022-10-05T23:53:01.226Z,8.63
2022-10-05T23:57:10.223Z,6.53
